sensor_id;sensor_type;location;lat;lon;timestamp;temperature;humidity
66337;SHT30;53139;45.576;5.304;2022-09-13T00:02:48;21.66;79.22
66337;SHT30;53139;45.576;5.304;2022-09-13T00:05:50;21.86;78.87
66337;SHT30;53139;45.576;5.304;2022-09-13T00:08:53;21.79;78.57
66337;SHT30;53139;45.576;5.304;2022-09-13T00:11:56;21.63;79.18
66337;SHT30;53139;45.576;5.304;2022-09-13T00:14:56;21.91;79.38
66337;SHT30;53139;45.576;5.304;2022-09-13T00:17:57;21.87;79.40
66337;SHT30;53139;45.576;5.304;2022-09-13T00:21:05;21.91;79.01
66337;SHT30;53139;45.576;5.304;2022-09-13T00:24:05;21.97;79.42
66337;SHT30;53139;45.576;5.304;2022-09-13T00:27:06;21.97;79.78
66337;SHT30;53139;45.576;5.304;2022-09-13T00:30:07;21.90;79.86
66337;SHT30;53139;45.576;5.304;2022-09-13T00:33:10;21.86;80.02
66337;SHT30;53139;45.576;5.304;2022-09-13T00:36:12;22.14;79.44
66337;SHT30;53139;45.576;5.304;2022-09-13T00:39:14;21.96;78.71
66337;SHT30;53139;45.576;5.304;2022-09-13T00:42:15;21.77;81.26
66337;SHT30;53139;45.576;5.304;2022-09-13T00:45:18;21.98;79.52
66337;SHT30;53139;45.576;5.304;2022-09-13T00:48:21;21.84;81.04
66337;SHT30;53139;45.576;5.304;2022-09-13T00:51:22;21.97;80.13
66337;SHT30;53139;45.576;5.304;2022-09-13T00:54:29;22.01;79.54
66337;SHT30;53139;45.576;5.304;2022-09-13T00:57:34;21.93;80.66
66337;SHT30;53139;45.576;5.304;2022-09-13T01:00:36;22.08;79.98
66337;SHT30;53139;45.576;5.304;2022-09-13T01:03:40;22.00;80.60
66337;SHT30;53139;45.576;5.304;2022-09-13T01:06:42;21.96;80.72
66337;SHT30;53139;45.576;5.304;2022-09-13T01:09:45;21.96;80.16
66337;SHT30;53139;45.576;5.304;2022-09-13T01:13:04;21.93;80.71
66337;SHT30;53139;45.576;5.304;2022-09-13T01:16:12;21.83;80.64
66337;SHT30;53139;45.576;5.304;2022-09-13T01:19:15;21.74;80.35
66337;SHT30;53139;45.576;5.304;2022-09-13T01:22:49;21.53;81.24
66337;SHT30;53139;45.576;5.304;2022-09-13T01:33:22;21.27;81.81
66337;SHT30;53139;45.576;5.304;2022-09-13T01:36:57;21.17;81.84
66337;SHT30;53139;45.576;5.304;2022-09-13T01:47:05;20.90;82.63
66337;SHT30;53139;45.576;5.304;2022-09-13T01:56:38;20.95;83.38
66337;SHT30;53139;45.576;5.304;2022-09-13T01:59:52;20.95;82.48
66337;SHT30;53139;45.576;5.304;2022-09-13T02:03:03;21.04;82.75
66337;SHT30;53139;45.576;5.304;2022-09-13T02:06:14;21.14;82.92
66337;SHT30;53139;45.576;5.304;2022-09-13T02:09:20;21.10;82.66
66337;SHT30;53139;45.576;5.304;2022-09-13T02:12:28;20.90;83.07
66337;SHT30;53139;45.576;5.304;2022-09-13T02:15:39;20.73;83.81
66337;SHT30;53139;45.576;5.304;2022-09-13T02:18:47;20.95;82.51
66337;SHT30;53139;45.576;5.304;2022-09-13T02:21:53;20.80;83.15
66337;SHT30;53139;45.576;5.304;2022-09-13T02:25:02;20.70;83.10
66337;SHT30;53139;45.576;5.304;2022-09-13T02:28:08;20.63;83.54
66337;SHT30;53139;45.576;5.304;2022-09-13T02:31:10;20.69;83.65
66337;SHT30;53139;45.576;5.304;2022-09-13T02:34:20;20.60;83.20
66337;SHT30;53139;45.576;5.304;2022-09-13T02:37:23;20.56;84.38
66337;SHT30;53139;45.576;5.304;2022-09-13T02:40:28;20.50;84.80
66337;SHT30;53139;45.576;5.304;2022-09-13T02:43:36;20.53;84.71
66337;SHT30;53139;45.576;5.304;2022-09-13T02:54:03;20.25;84.89
66337;SHT30;53139;45.576;5.304;2022-09-13T02:57:28;20.36;83.43
66337;SHT30;53139;45.576;5.304;2022-09-13T03:00:31;20.32;83.44
66337;SHT30;53139;45.576;5.304;2022-09-13T03:03:32;20.21;84.00
66337;SHT30;53139;45.576;5.304;2022-09-13T03:06:33;20.28;84.51
66337;SHT30;53139;45.576;5.304;2022-09-13T03:09:34;20.38;84.14
66337;SHT30;53139;45.576;5.304;2022-09-13T03:13:02;20.50;84.11
66337;SHT30;53139;45.576;5.304;2022-09-13T03:16:39;20.56;83.92
66337;SHT30;53139;45.576;5.304;2022-09-13T03:26:02;20.32;84.74
66337;SHT30;53139;45.576;5.304;2022-09-13T03:29:24;20.14;85.21
66337;SHT30;53139;45.576;5.304;2022-09-13T03:38:57;20.00;85.66
66337;SHT30;53139;45.576;5.304;2022-09-13T03:42:04;20.04;85.62
66337;SHT30;53139;45.576;5.304;2022-09-13T03:45:07;19.94;85.72
66337;SHT30;53139;45.576;5.304;2022-09-13T03:48:11;19.98;85.55
66337;SHT30;53139;45.576;5.304;2022-09-13T03:51:12;19.90;85.51
66337;SHT30;53139;45.576;5.304;2022-09-13T03:54:17;19.95;86.10
66337;SHT30;53139;45.576;5.304;2022-09-13T03:57:20;19.94;86.01
66337;SHT30;53139;45.576;5.304;2022-09-13T04:00:21;19.74;86.85
66337;SHT30;53139;45.576;5.304;2022-09-13T04:03:22;19.88;86.14
66337;SHT30;53139;45.576;5.304;2022-09-13T04:06:25;19.94;85.15
66337;SHT30;53139;45.576;5.304;2022-09-13T04:09:25;19.85;86.03
66337;SHT30;53139;45.576;5.304;2022-09-13T04:12:26;19.78;86.36
66337;SHT30;53139;45.576;5.304;2022-09-13T04:15:31;19.66;87.59
66337;SHT30;53139;45.576;5.304;2022-09-13T04:18:32;19.87;87.09
66337;SHT30;53139;45.576;5.304;2022-09-13T04:21:33;19.94;86.52
66337;SHT30;53139;45.576;5.304;2022-09-13T04:24:34;19.92;85.97
66337;SHT30;53139;45.576;5.304;2022-09-13T04:27:35;20.00;85.35
66337;SHT30;53139;45.576;5.304;2022-09-13T04:30:36;20.01;84.26
66337;SHT30;53139;45.576;5.304;2022-09-13T04:33:37;19.92;84.75
66337;SHT30;53139;45.576;5.304;2022-09-13T04:36:38;19.60;86.71
66337;SHT30;53139;45.576;5.304;2022-09-13T04:39:40;19.62;85.40
66337;SHT30;53139;45.576;5.304;2022-09-13T04:42:43;19.52;86.57
66337;SHT30;53139;45.576;5.304;2022-09-13T04:45:46;19.64;87.01
66337;SHT30;53139;45.576;5.304;2022-09-13T04:48:50;19.85;85.21
66337;SHT30;53139;45.576;5.304;2022-09-13T04:51:50;19.75;86.75
66337;SHT30;53139;45.576;5.304;2022-09-13T04:54:51;19.77;86.41
66337;SHT30;53139;45.576;5.304;2022-09-13T04:57:52;19.87;85.71
66337;SHT30;53139;45.576;5.304;2022-09-13T05:00:59;19.88;86.24
66337;SHT30;53139;45.576;5.304;2022-09-13T05:03:59;20.00;85.08
66337;SHT30;53139;45.576;5.304;2022-09-13T05:07:00;19.97;85.70
66337;SHT30;53139;45.576;5.304;2022-09-13T05:10:01;19.98;85.24
66337;SHT30;53139;45.576;5.304;2022-09-13T05:13:02;19.91;85.63
66337;SHT30;53139;45.576;5.304;2022-09-13T05:16:05;19.91;85.11
66337;SHT30;53139;45.576;5.304;2022-09-13T05:19:06;19.91;84.97
66337;SHT30;53139;45.576;5.304;2022-09-13T05:22:07;20.08;84.28
66337;SHT30;53139;45.576;5.304;2022-09-13T05:25:08;20.14;83.78
66337;SHT30;53139;45.576;5.304;2022-09-13T05:28:09;20.00;84.61
66337;SHT30;53139;45.576;5.304;2022-09-13T05:31:27;20.04;85.15
66337;SHT30;53139;45.576;5.304;2022-09-13T05:34:29;20.17;84.63
66337;SHT30;53139;45.576;5.304;2022-09-13T05:37:30;20.15;84.64
66337;SHT30;53139;45.576;5.304;2022-09-13T05:40:31;20.29;83.62
66337;SHT30;53139;45.576;5.304;2022-09-13T05:43:33;20.10;84.68
66337;SHT30;53139;45.576;5.304;2022-09-13T05:46:35;20.25;83.58
66337;SHT30;53139;45.576;5.304;2022-09-13T05:49:37;20.24;83.57
66337;SHT30;53139;45.576;5.304;2022-09-13T05:52:39;20.24;83.51
66337;SHT30;53139;45.576;5.304;2022-09-13T05:55:40;20.24;83.28
66337;SHT30;53139;45.576;5.304;2022-09-13T05:58:42;20.24;83.03
66337;SHT30;53139;45.576;5.304;2022-09-13T06:01:43;20.18;83.11
66337;SHT30;53139;45.576;5.304;2022-09-13T06:04:45;20.29;82.70
66337;SHT30;53139;45.576;5.304;2022-09-13T06:07:47;20.29;82.45
66337;SHT30;53139;45.576;5.304;2022-09-13T06:11:05;20.32;82.34
66337;SHT30;53139;45.576;5.304;2022-09-13T06:14:06;20.25;82.44
66337;SHT30;53139;45.576;5.304;2022-09-13T06:17:07;20.26;82.08
66337;SHT30;53139;45.576;5.304;2022-09-13T06:20:08;20.25;81.85
66337;SHT30;53139;45.576;5.304;2022-09-13T06:23:10;20.26;81.52
66337;SHT30;53139;45.576;5.304;2022-09-13T06:26:15;20.25;81.72
66337;SHT30;53139;45.576;5.304;2022-09-13T06:29:15;20.24;81.45
66337;SHT30;53139;45.576;5.304;2022-09-13T06:32:16;20.30;80.49
66337;SHT30;53139;45.576;5.304;2022-09-13T06:35:17;20.11;80.99
66337;SHT30;53139;45.576;5.304;2022-09-13T06:38:18;20.07;80.50
66337;SHT30;53139;45.576;5.304;2022-09-13T06:41:23;20.14;80.07
66337;SHT30;53139;45.576;5.304;2022-09-13T06:44:24;19.98;80.47
66337;SHT30;53139;45.576;5.304;2022-09-13T06:47:25;19.88;79.92
66337;SHT30;53139;45.576;5.304;2022-09-13T06:50:28;19.77;79.89
66337;SHT30;53139;45.576;5.304;2022-09-13T06:53:32;19.84;78.98
66337;SHT30;53139;45.576;5.304;2022-09-13T06:56:37;19.91;78.77
66337;SHT30;53139;45.576;5.304;2022-09-13T06:59:40;19.77;78.79
66337;SHT30;53139;45.576;5.304;2022-09-13T07:02:42;19.69;78.83
66337;SHT30;53139;45.576;5.304;2022-09-13T07:05:45;19.73;79.05
66337;SHT30;53139;45.576;5.304;2022-09-13T07:08:48;19.70;79.46
66337;SHT30;53139;45.576;5.304;2022-09-13T07:11:53;19.85;77.75
66337;SHT30;53139;45.576;5.304;2022-09-13T07:14:56;20.04;77.50
66337;SHT30;53139;45.576;5.304;2022-09-13T07:17:58;20.10;78.07
66337;SHT30;53139;45.576;5.304;2022-09-13T07:21:07;20.15;77.95
66337;SHT30;53139;45.576;5.304;2022-09-13T07:24:08;20.52;76.69
66337;SHT30;53139;45.576;5.304;2022-09-13T07:27:11;20.60;76.45
66337;SHT30;53139;45.576;5.304;2022-09-13T07:30:16;20.93;76.50
66337;SHT30;53139;45.576;5.304;2022-09-13T07:33:18;21.11;75.39
66337;SHT30;53139;45.576;5.304;2022-09-13T07:36:21;21.59;75.07
66337;SHT30;53139;45.576;5.304;2022-09-13T07:39:22;21.89;74.25
66337;SHT30;53139;45.576;5.304;2022-09-13T07:42:23;22.17;73.67
66337;SHT30;53139;45.576;5.304;2022-09-13T07:45:24;22.62;73.67
66337;SHT30;53139;45.576;5.304;2022-09-13T07:48:28;22.82;71.92
66337;SHT30;53139;45.576;5.304;2022-09-13T07:51:32;23.38;71.96
66337;SHT30;53139;45.576;5.304;2022-09-13T07:54:35;23.93;70.52
66337;SHT30;53139;45.576;5.304;2022-09-13T07:57:39;24.14;69.61
66337;SHT30;53139;45.576;5.304;2022-09-13T08:00:41;24.41;68.71
66337;SHT30;53139;45.576;5.304;2022-09-13T08:03:50;24.44;68.19
66337;SHT30;53139;45.576;5.304;2022-09-13T08:06:53;25.03;66.25
66337;SHT30;53139;45.576;5.304;2022-09-13T08:09:56;25.10;66.10
66337;SHT30;53139;45.576;5.304;2022-09-13T08:12:58;25.17;65.41
66337;SHT30;53139;45.576;5.304;2022-09-13T08:16:03;25.31;65.55
66337;SHT30;53139;45.576;5.304;2022-09-13T08:19:04;25.27;65.13
66337;SHT30;53139;45.576;5.304;2022-09-13T08:22:07;25.09;65.30
66337;SHT30;53139;45.576;5.304;2022-09-13T08:25:10;24.94;66.88
66337;SHT30;53139;45.576;5.304;2022-09-13T08:28:17;25.10;65.98
66337;SHT30;53139;45.576;5.304;2022-09-13T08:31:20;25.81;64.04
66337;SHT30;53139;45.576;5.304;2022-09-13T08:34:24;25.96;62.93
66337;SHT30;53139;45.576;5.304;2022-09-13T08:37:26;26.61;62.06
66337;SHT30;53139;45.576;5.304;2022-09-13T08:40:47;26.99;61.13
66337;SHT30;53139;45.576;5.304;2022-09-13T08:44:02;27.22;60.27
66337;SHT30;53139;45.576;5.304;2022-09-13T08:50:30;28.05;59.14
66337;SHT30;53139;45.576;5.304;2022-09-13T08:53:44;27.91;59.61
66337;SHT30;53139;45.576;5.304;2022-09-13T08:56:55;27.93;59.42
66337;SHT30;53139;45.576;5.304;2022-09-13T09:00:21;27.20;61.34
66337;SHT30;53139;45.576;5.304;2022-09-13T09:07:16;27.91;59.70
66337;SHT30;53139;45.576;5.304;2022-09-13T09:10:22;28.40;58.29
66337;SHT30;53139;45.576;5.304;2022-09-13T09:13:27;28.39;57.56
66337;SHT30;53139;45.576;5.304;2022-09-13T09:16:38;27.29;60.44
66337;SHT30;53139;45.576;5.304;2022-09-13T09:19:48;26.99;61.23
66337;SHT30;53139;45.576;5.304;2022-09-13T09:22:53;27.26;59.88
66337;SHT30;53139;45.576;5.304;2022-09-13T09:26:10;26.93;60.30
66337;SHT30;53139;45.576;5.304;2022-09-13T09:32:45;27.33;59.68
66337;SHT30;53139;45.576;5.304;2022-09-13T09:36:10;26.76;60.89
66337;SHT30;53139;45.576;5.304;2022-09-13T09:39:14;26.72;60.64
66337;SHT30;53139;45.576;5.304;2022-09-13T09:42:21;27.02;60.68
66337;SHT30;53139;45.576;5.304;2022-09-13T09:45:31;27.40;59.55
66337;SHT30;53139;45.576;5.304;2022-09-13T09:48:42;27.03;60.60
66337;SHT30;53139;45.576;5.304;2022-09-13T09:51:46;27.46;59.87
66337;SHT30;53139;45.576;5.304;2022-09-13T09:54:49;27.20;60.22
66337;SHT30;53139;45.576;5.304;2022-09-13T09:58:03;27.51;60.09
66337;SHT30;53139;45.576;5.304;2022-09-13T10:01:21;27.50;59.44
66337;SHT30;53139;45.576;5.304;2022-09-13T10:04:26;28.39;57.61
66337;SHT30;53139;45.576;5.304;2022-09-13T10:07:32;29.18;55.39
66337;SHT30;53139;45.576;5.304;2022-09-13T10:10:43;29.93;54.34
66337;SHT30;53139;45.576;5.304;2022-09-13T10:13:58;29.85;54.23
66337;SHT30;53139;45.576;5.304;2022-09-13T10:17:20;30.57;53.00
66337;SHT30;53139;45.576;5.304;2022-09-13T10:20:22;30.56;51.86
66337;SHT30;53139;45.576;5.304;2022-09-13T10:23:29;29.70;54.32
66337;SHT30;53139;45.576;5.304;2022-09-13T10:26:32;29.10;53.78
66337;SHT30;53139;45.576;5.304;2022-09-13T10:29:36;28.91;54.82
66337;SHT30;53139;45.576;5.304;2022-09-13T10:32:40;29.88;53.84
66337;SHT30;53139;45.576;5.304;2022-09-13T10:35:47;29.08;54.46
66337;SHT30;53139;45.576;5.304;2022-09-13T10:38:56;29.34;54.10
66337;SHT30;53139;45.576;5.304;2022-09-13T10:42:03;28.55;55.79
66337;SHT30;53139;45.576;5.304;2022-09-13T10:45:08;29.43;53.90
66337;SHT30;53139;45.576;5.304;2022-09-13T10:48:20;29.68;54.42
66337;SHT30;53139;45.576;5.304;2022-09-13T10:54:26;29.63;54.10
66337;SHT30;53139;45.576;5.304;2022-09-13T10:57:33;29.31;53.95
66337;SHT30;53139;45.576;5.304;2022-09-13T11:01:01;29.92;53.23
66337;SHT30;53139;45.576;5.304;2022-09-13T11:04:35;29.56;53.10
66337;SHT30;53139;45.576;5.304;2022-09-13T11:08:01;29.64;53.63
66337;SHT30;53139;45.576;5.304;2022-09-13T11:14:54;30.25;53.02
66337;SHT30;53139;45.576;5.304;2022-09-13T11:21:22;29.49;54.21
66337;SHT30;53139;45.576;5.304;2022-09-13T11:51:35;29.45;54.34
66337;SHT30;53139;45.576;5.304;2022-09-13T11:55:36;30.09;52.48
66337;SHT30;53139;45.576;5.304;2022-09-13T11:58:29;29.13;54.60
66337;SHT30;53139;45.576;5.304;2022-09-13T12:01:40;28.95;55.61
66337;SHT30;53139;45.576;5.304;2022-09-13T12:04:55;29.47;54.66
66337;SHT30;53139;45.576;5.304;2022-09-13T12:08:17;29.57;54.11
66337;SHT30;53139;45.576;5.304;2022-09-13T12:11:53;29.49;54.84
66337;SHT30;53139;45.576;5.304;2022-09-13T12:14:59;29.30;54.24
66337;SHT30;53139;45.576;5.304;2022-09-13T12:18:16;29.84;53.63
66337;SHT30;53139;45.576;5.304;2022-09-13T12:21:24;31.33;50.75
66337;SHT30;53139;45.576;5.304;2022-09-13T12:24:47;31.43;50.45
66337;SHT30;53139;45.576;5.304;2022-09-13T12:27:56;30.90;51.40
66337;SHT30;53139;45.576;5.304;2022-09-13T12:31:11;30.50;51.76
66337;SHT30;53139;45.576;5.304;2022-09-13T12:34:22;30.74;53.06
66337;SHT30;53139;45.576;5.304;2022-09-13T12:41:01;29.84;53.77
66337;SHT30;53139;45.576;5.304;2022-09-13T12:51:06;28.81;56.38
66337;SHT30;53139;45.576;5.304;2022-09-13T13:01:32;29.37;55.07
66337;SHT30;53139;45.576;5.304;2022-09-13T13:04:35;29.37;54.21
66337;SHT30;53139;45.576;5.304;2022-09-13T13:07:36;28.99;55.38
66337;SHT30;53139;45.576;5.304;2022-09-13T13:10:39;29.34;54.62
66337;SHT30;53139;45.576;5.304;2022-09-13T13:23:46;28.47;56.54
66337;SHT30;53139;45.576;5.304;2022-09-13T13:26:56;28.58;56.45
66337;SHT30;53139;45.576;5.304;2022-09-13T13:40:25;28.53;55.72
66337;SHT30;53139;45.576;5.304;2022-09-13T13:43:34;28.90;55.34
66337;SHT30;53139;45.576;5.304;2022-09-13T13:46:35;28.74;55.55
66337;SHT30;53139;45.576;5.304;2022-09-13T13:55:47;29.54;54.33
66337;SHT30;53139;45.576;5.304;2022-09-13T13:58:58;30.25;53.12
66337;SHT30;53139;45.576;5.304;2022-09-13T14:02:04;30.33;52.42
66337;SHT30;53139;45.576;5.304;2022-09-13T14:05:14;30.33;52.02
66337;SHT30;53139;45.576;5.304;2022-09-13T14:08:37;29.64;53.99
66337;SHT30;53139;45.576;5.304;2022-09-13T14:11:49;29.68;53.68
66337;SHT30;53139;45.576;5.304;2022-09-13T14:15:03;29.63;53.78
66337;SHT30;53139;45.576;5.304;2022-09-13T14:18:21;29.50;54.26
66337;SHT30;53139;45.576;5.304;2022-09-13T14:21:29;28.85;55.58
66337;SHT30;53139;45.576;5.304;2022-09-13T14:24:35;28.91;55.19
66337;SHT30;53139;45.576;5.304;2022-09-13T14:27:40;28.14;56.66
66337;SHT30;53139;45.576;5.304;2022-09-13T14:30:43;28.37;55.71
66337;SHT30;53139;45.576;5.304;2022-09-13T14:33:47;28.47;56.40
66337;SHT30;53139;45.576;5.304;2022-09-13T14:36:52;28.23;56.31
66337;SHT30;53139;45.576;5.304;2022-09-13T14:43:28;28.40;55.99
66337;SHT30;53139;45.576;5.304;2022-09-13T14:46:38;28.30;56.42
66337;SHT30;53139;45.576;5.304;2022-09-13T14:49:46;27.96;57.32
66337;SHT30;53139;45.576;5.304;2022-09-13T14:53:30;28.12;56.66
66337;SHT30;53139;45.576;5.304;2022-09-13T14:56:39;28.30;56.48
66337;SHT30;53139;45.576;5.304;2022-09-13T14:59:46;28.24;56.46
66337;SHT30;53139;45.576;5.304;2022-09-13T15:02:52;28.46;56.08
66337;SHT30;53139;45.576;5.304;2022-09-13T15:05:57;28.88;54.75
66337;SHT30;53139;45.576;5.304;2022-09-13T15:09:14;28.51;55.99
66337;SHT30;53139;45.576;5.304;2022-09-13T15:12:23;28.37;55.85
66337;SHT30;53139;45.576;5.304;2022-09-13T15:18:32;28.50;55.59
66337;SHT30;53139;45.576;5.304;2022-09-13T15:21:35;28.32;56.15
66337;SHT30;53139;45.576;5.304;2022-09-13T15:24:42;28.41;56.10
66337;SHT30;53139;45.576;5.304;2022-09-13T15:27:47;28.36;55.77
66337;SHT30;53139;45.576;5.304;2022-09-13T15:30:50;28.21;56.29
66337;SHT30;53139;45.576;5.304;2022-09-13T15:37:29;27.64;56.88
66337;SHT30;53139;45.576;5.304;2022-09-13T15:40:42;27.78;57.03
66337;SHT30;53139;45.576;5.304;2022-09-13T15:43:48;27.54;57.54
66337;SHT30;53139;45.576;5.304;2022-09-13T15:46:53;27.71;56.91
66337;SHT30;53139;45.576;5.304;2022-09-13T15:49:55;27.47;57.74
66337;SHT30;53139;45.576;5.304;2022-09-13T15:53:00;27.31;58.16
66337;SHT30;53139;45.576;5.304;2022-09-13T15:56:03;27.23;58.63
66337;SHT30;53139;45.576;5.304;2022-09-13T15:59:06;27.11;58.55
66337;SHT30;53139;45.576;5.304;2022-09-13T16:02:34;27.24;58.21
66337;SHT30;53139;45.576;5.304;2022-09-13T16:05:37;27.44;57.62
66337;SHT30;53139;45.576;5.304;2022-09-13T16:08:40;27.46;57.89
66337;SHT30;53139;45.576;5.304;2022-09-13T16:11:42;27.31;58.32
66337;SHT30;53139;45.576;5.304;2022-09-13T16:14:45;27.26;58.08
66337;SHT30;53139;45.576;5.304;2022-09-13T16:17:48;27.13;58.81
66337;SHT30;53139;45.576;5.304;2022-09-13T16:20:51;27.13;58.66
66337;SHT30;53139;45.576;5.304;2022-09-13T16:23:54;27.13;58.93
66337;SHT30;53139;45.576;5.304;2022-09-13T16:26:59;27.16;58.86
66337;SHT30;53139;45.576;5.304;2022-09-13T16:30:02;27.09;59.16
66337;SHT30;53139;45.576;5.304;2022-09-13T16:33:05;26.91;59.99
66337;SHT30;53139;45.576;5.304;2022-09-13T16:36:05;27.02;59.37
66337;SHT30;53139;45.576;5.304;2022-09-13T16:39:07;26.95;59.09
66337;SHT30;53139;45.576;5.304;2022-09-13T16:42:12;26.82;59.70
66337;SHT30;53139;45.576;5.304;2022-09-13T16:45:14;26.76;60.08
66337;SHT30;53139;45.576;5.304;2022-09-13T16:48:17;26.79;59.70
66337;SHT30;53139;45.576;5.304;2022-09-13T16:51:20;26.64;59.88
66337;SHT30;53139;45.576;5.304;2022-09-13T16:54:22;26.68;59.43
66337;SHT30;53139;45.576;5.304;2022-09-13T16:57:25;26.64;59.67
66337;SHT30;53139;45.576;5.304;2022-09-13T17:00:27;26.52;60.11
66337;SHT30;53139;45.576;5.304;2022-09-13T17:03:31;26.59;59.64
66337;SHT30;53139;45.576;5.304;2022-09-13T17:06:35;26.58;59.41
66337;SHT30;53139;45.576;5.304;2022-09-13T17:09:39;26.49;59.56
66337;SHT30;53139;45.576;5.304;2022-09-13T17:12:41;26.51;59.19
66337;SHT30;53139;45.576;5.304;2022-09-13T17:15:44;26.49;59.15
66337;SHT30;53139;45.576;5.304;2022-09-13T17:18:47;26.49;58.95
66337;SHT30;53139;45.576;5.304;2022-09-13T17:21:54;26.51;59.19
66337;SHT30;53139;45.576;5.304;2022-09-13T17:24:59;26.38;59.31
66337;SHT30;53139;45.576;5.304;2022-09-13T17:28:03;26.40;59.50
66337;SHT30;53139;45.576;5.304;2022-09-13T17:31:06;26.31;59.68
66337;SHT30;53139;45.576;5.304;2022-09-13T17:34:10;26.28;59.89
66337;SHT30;53139;45.576;5.304;2022-09-13T17:37:13;26.24;59.93
66337;SHT30;53139;45.576;5.304;2022-09-13T17:40:18;26.19;60.21
66337;SHT30;53139;45.576;5.304;2022-09-13T17:43:21;26.21;59.85
66337;SHT30;53139;45.576;5.304;2022-09-13T17:46:26;26.14;60.09
66337;SHT30;53139;45.576;5.304;2022-09-13T17:49:30;26.07;60.44
66337;SHT30;53139;45.576;5.304;2022-09-13T17:52:33;26.04;60.51
66337;SHT30;53139;45.576;5.304;2022-09-13T17:55:35;26.06;60.48
66337;SHT30;53139;45.576;5.304;2022-09-13T17:58:38;26.09;60.51
66337;SHT30;53139;45.576;5.304;2022-09-13T18:01:46;25.97;60.91
66337;SHT30;53139;45.576;5.304;2022-09-13T18:04:49;25.97;61.15
66337;SHT30;53139;45.576;5.304;2022-09-13T18:07:54;25.92;61.48
66337;SHT30;53139;45.576;5.304;2022-09-13T18:11:11;25.93;61.75
66337;SHT30;53139;45.576;5.304;2022-09-13T18:14:16;25.94;61.96
66337;SHT30;53139;45.576;5.304;2022-09-13T18:17:18;25.88;62.38
66337;SHT30;53139;45.576;5.304;2022-09-13T18:20:24;25.85;62.66
66337;SHT30;53139;45.576;5.304;2022-09-13T18:23:27;25.82;62.92
66337;SHT30;53139;45.576;5.304;2022-09-13T18:26:30;25.65;63.82
66337;SHT30;53139;45.576;5.304;2022-09-13T18:29:33;25.61;64.16
66337;SHT30;53139;45.576;5.304;2022-09-13T18:32:36;25.71;63.78
66337;SHT30;53139;45.576;5.304;2022-09-13T18:35:38;25.66;64.05
66337;SHT30;53139;45.576;5.304;2022-09-13T18:38:43;25.72;63.87
66337;SHT30;53139;45.576;5.304;2022-09-13T18:41:47;25.62;64.58
66337;SHT30;53139;45.576;5.304;2022-09-13T18:44:49;25.71;64.68
66337;SHT30;53139;45.576;5.304;2022-09-13T18:47:53;25.58;65.46
66337;SHT30;53139;45.576;5.304;2022-09-13T18:50:55;25.45;66.41
66337;SHT30;53139;45.576;5.304;2022-09-13T18:53:59;25.33;67.28
66337;SHT30;53139;45.576;5.304;2022-09-13T18:57:01;25.24;68.32
66337;SHT30;53139;45.576;5.304;2022-09-13T19:00:02;24.80;70.92
66337;SHT30;53139;45.576;5.304;2022-09-13T19:03:05;24.54;73.24
66337;SHT30;53139;45.576;5.304;2022-09-13T19:06:12;24.24;74.78
66337;SHT30;53139;45.576;5.304;2022-09-13T19:09:16;22.84;81.73
66337;SHT30;53139;45.576;5.304;2022-09-13T19:12:19;22.66;81.93
66337;SHT30;53139;45.576;5.304;2022-09-13T19:15:20;22.60;82.38
66337;SHT30;53139;45.576;5.304;2022-09-13T19:18:23;22.65;84.06
66337;SHT30;53139;45.576;5.304;2022-09-13T19:21:28;22.49;84.85
66337;SHT30;53139;45.576;5.304;2022-09-13T19:24:30;22.44;85.45
66337;SHT30;53139;45.576;5.304;2022-09-13T19:27:31;22.63;87.85
66337;SHT30;53139;45.576;5.304;2022-09-13T19:30:34;22.48;87.57
66337;SHT30;53139;45.576;5.304;2022-09-13T19:33:36;22.27;86.65
66337;SHT30;53139;45.576;5.304;2022-09-13T19:36:39;22.22;86.75
66337;SHT30;53139;45.576;5.304;2022-09-13T19:39:42;22.20;86.68
66337;SHT30;53139;45.576;5.304;2022-09-13T19:42:43;22.27;86.16
66337;SHT30;53139;45.576;5.304;2022-09-13T19:46:03;22.14;87.16
66337;SHT30;53139;45.576;5.304;2022-09-13T19:49:06;22.21;88.07
66337;SHT30;53139;45.576;5.304;2022-09-13T19:52:09;22.11;89.54
66337;SHT30;53139;45.576;5.304;2022-09-13T19:55:12;22.14;87.67
66337;SHT30;53139;45.576;5.304;2022-09-13T19:58:14;22.17;87.37
66337;SHT30;53139;45.576;5.304;2022-09-13T20:01:23;22.20;87.05
66337;SHT30;53139;45.576;5.304;2022-09-13T20:04:27;22.20;87.13
66337;SHT30;53139;45.576;5.304;2022-09-13T20:07:31;22.22;86.73
66337;SHT30;53139;45.576;5.304;2022-09-13T20:10:35;22.14;87.03
66337;SHT30;53139;45.576;5.304;2022-09-13T20:13:37;22.21;87.17
66337;SHT30;53139;45.576;5.304;2022-09-13T20:16:39;22.20;87.15
66337;SHT30;53139;45.576;5.304;2022-09-13T20:19:42;22.15;88.09
66337;SHT30;53139;45.576;5.304;2022-09-13T20:22:43;22.18;88.00
66337;SHT30;53139;45.576;5.304;2022-09-13T20:25:46;22.21;87.94
66337;SHT30;53139;45.576;5.304;2022-09-13T20:28:53;22.24;88.18
66337;SHT30;53139;45.576;5.304;2022-09-13T20:31:54;22.21;88.22
66337;SHT30;53139;45.576;5.304;2022-09-13T20:34:55;22.11;89.61
66337;SHT30;53139;45.576;5.304;2022-09-13T20:37:56;22.15;88.80
66337;SHT30;53139;45.576;5.304;2022-09-13T20:41:09;22.14;88.87
66337;SHT30;53139;45.576;5.304;2022-09-13T20:44:12;22.15;88.72
66337;SHT30;53139;45.576;5.304;2022-09-13T20:47:12;22.18;88.61
66337;SHT30;53139;45.576;5.304;2022-09-13T20:50:13;22.12;88.79
66337;SHT30;53139;45.576;5.304;2022-09-13T20:53:16;22.31;87.43
66337;SHT30;53139;45.576;5.304;2022-09-13T20:56:18;22.25;87.85
66337;SHT30;53139;45.576;5.304;2022-09-13T20:59:21;22.28;87.51
66337;SHT30;53139;45.576;5.304;2022-09-13T21:02:24;22.22;87.63
66337;SHT30;53139;45.576;5.304;2022-09-13T21:05:25;22.24;87.73
66337;SHT30;53139;45.576;5.304;2022-09-13T21:08:26;22.22;87.54
66337;SHT30;53139;45.576;5.304;2022-09-13T21:11:42;22.18;87.77
66337;SHT30;53139;45.576;5.304;2022-09-13T21:14:44;22.18;87.53
66337;SHT30;53139;45.576;5.304;2022-09-13T21:17:47;22.25;87.05
66337;SHT30;53139;45.576;5.304;2022-09-13T21:20:55;22.18;86.79
66337;SHT30;53139;45.576;5.304;2022-09-13T21:23:59;22.20;86.46
66337;SHT30;53139;45.576;5.304;2022-09-13T21:27:01;22.12;87.27
66337;SHT30;53139;45.576;5.304;2022-09-13T21:30:04;22.11;86.93
66337;SHT30;53139;45.576;5.304;2022-09-13T21:33:09;22.20;85.61
66337;SHT30;53139;45.576;5.304;2022-09-13T21:36:12;22.20;85.71
66337;SHT30;53139;45.576;5.304;2022-09-13T21:39:15;22.11;86.18
66337;SHT30;53139;45.576;5.304;2022-09-13T21:42:19;22.20;85.33
66337;SHT30;53139;45.576;5.304;2022-09-13T21:45:22;22.46;84.39
66337;SHT30;53139;45.576;5.304;2022-09-13T21:48:25;22.55;83.78
66337;SHT30;53139;45.576;5.304;2022-09-13T21:51:44;22.38;84.09
66337;SHT30;53139;45.576;5.304;2022-09-13T21:54:46;22.12;84.96
66337;SHT30;53139;45.576;5.304;2022-09-13T21:57:49;22.05;84.29